.
WxDataArchive / Data Records for 2013-10-01
2013-09-30 October 2013 2013-10-02

Data Records for Tuesday, 01 October 2013

Time	Temp	Chill	HIndex	Humid	Dewpt	 Wind 	HiWind	WindDir	Rain 	Barom 
-----	----	-----	------	-----	-----	------	------	-------	-----	----- 
00:00	55.1	55.1	55.1	93	53.1	0	0	---	0.00	29.969 
00:05	55.1	55.1	55.1	93	53.1	0	0	---	0.00	29.969 
00:10	55.1	55.1	55.1	93	53.1	0	0	---	0.00	29.969 
00:15	55.1	55.1	55.1	93	53.1	0	0	---	0.00	29.968 
00:20	55.1	55.1	55.1	93	53.1	0	0	---	0.00	29.968 
00:25	55.0	55.0	55.0	93	53.0	0	0	---	0.00	29.968 
00:30	55.0	55.0	55.0	93	53.0	0	0	---	0.00	29.969 
00:35	55.0	55.0	55.0	93	53.0	0	0	---	0.00	29.969 
00:40	54.8	54.8	54.8	93	52.8	0	0	---	0.00	29.969 
00:45	54.8	54.8	54.8	94	53.1	0	0	---	0.00	29.965 
00:50	55.0	55.0	55.0	94	53.3	0	0	---	0.00	29.965 
00:55	55.1	55.1	55.1	94	53.4	0	0	---	0.00	29.965 
01:00	55.1	55.1	55.1	94	53.4	0	0	---	0.00	29.967 
01:05	55.1	55.1	55.1	94	53.4	0	0	---	0.00	29.967 
01:10	55.1	55.1	55.1	94	53.4	0	0	---	0.00	29.967 
01:15	55.1	55.1	55.1	94	53.4	0	0	---	0.00	29.962 
01:20	55.3	55.3	55.3	94	53.6	0	0	---	0.00	29.962 
01:25	55.6	55.6	55.6	94	53.9	0	0	---	0.00	29.962 
01:30	55.9	55.9	55.9	94	54.2	0	0	---	0.00	29.964 
01:35	55.9	55.9	55.9	94	54.2	0	0	---	0.00	29.964 
01:40	56.0	56.0	56.0	94	54.3	0	0	---	0.00	29.964 
01:45	56.2	56.2	56.2	95	54.8	0	0	---	0.00	29.959 
01:50	56.3	56.3	56.3	95	54.9	0	0	---	0.00	29.959 
01:55	56.5	56.5	56.5	95	55.1	0	0	---	0.00	29.959 
02:00	56.6	56.6	56.6	95	55.2	0	0	---	0.00	29.965 
02:05	56.7	56.7	56.7	95	55.3	0	0	---	0.00	29.965 
02:10	56.7	56.7	56.7	95	55.3	0	0	---	0.00	29.965 
02:15	56.7	56.7	56.7	95	55.3	0	0	---	0.00	29.966 
02:20	56.9	56.9	56.9	95	55.5	0	0	---	0.00	29.966 
02:25	56.9	56.9	56.9	95	55.5	0	0	---	0.00	29.966 
02:30	57.0	57.0	57.0	95	55.6	0	0	---	0.00	29.966 
02:35	57.2	57.2	57.2	95	55.8	0	0	---	0.00	29.966 
02:40	57.5	57.5	57.5	96	56.4	0	0	---	0.00	29.966 
02:45	57.6	57.6	57.6	96	56.5	0	0	---	0.00	29.964 
02:50	58.0	58.0	58.0	96	56.9	0	0	---	0.00	29.964 
02:55	58.1	58.1	58.1	96	57.0	0	0	---	0.00	29.964 
03:00	58.3	58.3	58.3	96	57.2	0	1	292	0.00	29.963 
03:05	58.4	58.4	58.4	96	57.3	0	0	---	0.00	29.963 
03:10	58.6	58.6	58.6	96	57.5	0	0	---	0.00	29.963 
03:15	58.6	58.6	58.6	96	57.5	0	0	---	0.00	29.961 
03:20	58.6	58.6	58.6	96	57.5	0	0	---	0.00	29.961 
03:25	58.6	58.6	58.6	96	57.5	0	0	---	0.00	29.961 
03:30	58.6	58.6	58.6	96	57.5	0	0	---	0.00	29.962 
03:35	58.7	58.7	58.7	96	57.6	0	0	---	0.00	29.962 
03:40	58.7	58.7	58.7	96	57.6	0	0	---	0.00	29.962 
03:45	58.7	58.7	58.7	96	57.6	0	0	---	0.00	29.963 
03:50	58.7	58.7	58.7	96	57.6	0	0	---	0.00	29.963 
03:55	58.7	58.7	58.7	96	57.6	0	0	---	0.00	29.963 
04:00	58.6	58.6	58.6	96	57.5	0	0	---	0.00	29.963 
04:05	58.6	58.6	58.6	96	57.5	0	0	---	0.00	29.963 
04:10	58.6	58.6	58.6	96	57.5	0	0	---	0.00	29.963 
04:15	58.6	58.6	58.6	96	57.5	0	0	---	0.00	29.963 
04:20	58.4	58.4	58.4	96	57.3	0	0	---	0.00	29.963 
04:25	58.3	58.3	58.3	96	57.2	0	0	---	0.00	29.963 
04:30	58.3	58.3	58.3	96	57.2	0	0	---	0.00	29.964 
04:35	58.1	58.1	58.1	96	57.0	0	0	---	0.00	29.964 
04:40	58.1	58.1	58.1	96	57.0	0	0	---	0.00	29.964 
04:45	58.1	58.1	58.1	96	57.0	0	0	---	0.00	29.965 
04:50	58.1	58.1	58.1	96	57.0	0	0	---	0.00	29.965 
04:55	58.1	58.1	58.1	96	57.0	0	0	---	0.00	29.965 
05:00	58.1	58.1	58.1	96	57.0	0	0	---	0.00	29.970 
05:05	58.0	58.0	58.0	96	56.9	0	0	---	0.00	29.970 
05:10	58.0	58.0	58.0	96	56.9	0	0	---	0.00	29.970 
05:15	58.0	58.0	58.0	96	56.9	0	0	---	0.00	29.979 
05:20	57.8	57.8	57.8	96	56.7	0	0	---	0.00	29.979 
05:25	57.6	57.6	57.6	96	56.5	0	0	---	0.00	29.979 
05:30	57.6	57.6	57.6	96	56.5	0	0	---	0.00	29.981 
05:35	57.6	57.6	57.6	96	56.5	0	0	---	0.00	29.981 
05:40	57.6	57.6	57.6	96	56.5	0	0	---	0.00	29.981 
05:45	57.5	57.5	57.5	96	56.4	0	0	---	0.00	29.983 
05:50	57.3	57.3	57.3	96	56.2	0	0	---	0.00	29.983 
05:55	57.2	57.2	57.2	96	56.1	0	0	---	0.00	29.983 
06:00	57.2	57.2	57.2	96	56.1	0	0	---	0.00	29.984 
06:05	57.0	57.0	57.0	96	55.9	0	0	---	0.00	29.984 
06:10	56.9	56.9	56.9	96	55.8	0	0	---	0.00	29.984 
06:15	56.6	56.6	56.6	96	55.5	0	0	---	0.00	29.987 
06:20	56.6	56.6	56.6	96	55.5	0	0	---	0.00	29.987 
06:25	56.6	56.6	56.6	96	55.5	0	0	---	0.00	29.987 
06:30	56.6	56.6	56.6	96	55.5	0	0	---	0.00	29.995 
06:35	56.6	56.6	56.6	96	55.5	0	0	---	0.00	29.995 
06:40	56.6	56.6	56.6	96	55.5	0	0	---	0.00	29.995 
06:45	56.6	56.6	56.6	96	55.5	0	0	---	0.00	29.997 
06:50	56.6	56.6	56.6	96	55.5	0	0	---	0.00	29.997 
06:55	56.7	56.7	56.7	96	55.6	0	0	---	0.00	29.997 
07:00	56.7	56.7	56.7	96	55.6	0	0	---	0.00	30.000 
07:05	56.9	56.9	56.9	96	55.8	0	0	---	0.00	30.000 
07:10	57.0	57.0	57.0	96	55.9	0	0	---	0.00	30.000 
07:15	57.3	57.3	57.3	96	56.2	0	0	---	0.00	30.006 
07:20	57.5	57.5	57.5	96	56.4	0	0	---	0.00	30.006 
07:25	57.6	57.6	57.6	96	56.5	0	0	---	0.00	30.006 
07:30	58.0	58.0	58.0	96	56.9	0	0	---	0.00	30.001 
07:35	58.4	58.4	58.4	96	57.3	0	0	---	0.00	30.001 
07:40	58.9	58.9	58.9	97	58.0	0	0	---	0.00	30.001 
07:45	59.3	59.3	59.3	97	58.4	0	0	---	0.00	30.010 
07:50	59.6	59.6	59.6	97	58.7	0	0	---	0.00	30.010 
07:55	59.9	59.9	59.9	97	59.0	0	1	292	0.00	30.010 
08:00	60.2	60.2	60.2	97	59.3	0	1	292	0.00	30.009 
08:05	60.4	60.4	60.4	97	59.5	0	0	---	0.00	30.009 
08:10	60.7	60.7	60.7	97	59.8	0	0	---	0.00	30.009 
08:15	60.9	60.9	60.9	97	60.0	0	1	292	0.00	30.014 
08:20	61.0	61.0	61.0	97	60.1	0	1	292	0.00	30.014 
08:25	61.2	61.2	61.2	97	60.3	0	1	292	0.00	30.014 
08:30	61.3	61.3	61.3	96	60.1	0	1	292	0.00	30.017 
08:35	61.3	61.3	61.3	96	60.1	0	1	292	0.00	30.017 
08:40	61.3	61.3	61.3	96	60.1	0	1	292	0.00	30.017 
08:45	61.3	61.3	61.3	96	60.1	0	3	292	0.00	30.018 
08:50	61.3	61.3	61.3	96	60.1	0	1	292	0.00	30.018 
08:55	61.3	61.3	61.3	96	60.1	0	1	292	0.00	30.018 
09:00	61.3	61.3	61.3	96	60.1	0	1	292	0.00	30.017 
09:05	61.3	61.3	61.3	96	60.1	0	1	292	0.00	30.017 
09:10	61.3	61.3	61.3	96	60.1	0	3	292	0.00	30.017 
09:15	61.3	61.3	61.3	96	60.1	0	2	45	0.00	30.021 
09:20	61.3	61.3	61.3	96	60.1	0	1	45	0.00	30.021 
09:25	61.3	61.3	61.3	96	60.1	0	2	0	0.00	30.021 
09:30	61.3	61.3	61.3	96	60.1	0	1	0	0.00	30.022 
09:35	61.3	61.3	61.3	96	60.1	0	2	0	0.00	30.022 
09:40	61.3	61.3	61.3	96	60.1	0	0	---	0.00	30.022 
09:45	61.5	61.5	61.5	96	60.3	0	1	292	0.00	30.023 
09:50	61.6	61.6	61.6	96	60.4	0	1	292	0.00	30.023 
09:55	61.6	61.6	61.6	96	60.4	0	1	292	0.00	30.023 
10:00	61.8	61.8	61.8	96	60.6	0	1	292	0.00	30.025 
10:05	61.8	61.8	61.8	96	60.6	0	1	292	0.00	30.025 
10:10	62.0	62.0	62.0	96	60.8	0	2	292	0.00	30.025 
10:15	62.0	62.0	62.0	96	60.8	0	1	292	0.00	30.027 
10:20	62.0	62.0	62.0	96	60.8	0	2	292	0.00	30.027 
10:25	62.1	62.1	62.1	96	60.9	0	1	22	0.00	30.027 
10:30	62.3	62.3	62.3	96	61.1	0	1	22	0.00	30.028 
10:35	62.3	62.3	62.3	96	61.1	0	2	225	0.00	30.028 
10:40	62.4	62.4	62.4	96	61.2	0	1	225	0.00	30.028 
10:45	62.4	62.4	62.4	96	61.2	0	1	225	0.00	30.029 
10:50	62.6	62.6	62.6	96	61.4	0	3	225	0.00	30.029 
10:55	62.7	62.7	62.7	96	61.5	0	2	315	0.00	30.029 
11:00	62.9	62.9	62.9	96	61.7	0	1	0	0.00	30.031 
11:05	63.2	63.2	63.2	96	62.0	0	2	0	0.00	30.031 
11:10	63.2	63.2	63.2	95	61.7	0	2	292	0.00	30.031 
11:15	63.5	63.5	63.5	95	62.0	0	1	292	0.00	30.032 
11:20	63.5	63.5	63.5	95	62.0	0	1	292	0.00	30.032 
11:25	63.7	63.7	63.7	95	62.2	0	1	292	0.00	30.032 
11:30	63.7	63.7	63.7	94	61.9	0	2	292	0.00	30.032 
11:35	63.7	63.7	63.7	94	61.9	0	2	292	0.00	30.032 
11:40	63.9	63.9	63.9	93	61.8	0	2	292	0.00	30.032 
11:45	63.9	63.9	63.9	92	61.5	0	4	45	0.00	30.030 
11:50	63.9	63.9	63.9	92	61.5	0	3	248	0.00	30.030 
11:55	64.0	64.0	64.0	91	61.3	0	3	270	0.00	30.030 
12:00	64.0	64.0	64.0	91	61.3	0	3	248	0.00	30.022 
12:05	64.2	64.2	64.2	90	61.2	0	1	248	0.00	30.022 
12:10	64.3	64.3	64.3	90	61.3	0	1	248	0.00	30.022 
12:15	64.5	64.5	64.5	89	61.2	0	2	248	0.00	30.019 
12:20	64.7	64.7	64.7	89	61.4	0	3	248	0.00	30.019 
12:25	64.7	64.7	64.7	88	61.1	0	1	248	0.00	30.019 
12:30	64.7	64.7	64.7	88	61.1	0	3	248	0.00	30.017 
12:35	65.0	65.0	65.0	88	61.4	0	2	248	0.00	30.017 
12:40	65.0	65.0	65.0	88	61.4	0	1	248	0.00	30.017 
12:45	65.0	65.0	65.0	87	61.0	0	1	248	0.00	30.018 
12:50	65.2	65.2	65.2	87	61.2	0	4	68	0.00	30.018 
12:55	65.2	65.2	65.2	86	60.9	0	1	68	0.00	30.018 
13:00	65.3	65.3	65.3	86	61.0	0	1	68	0.00	30.019 
13:05	65.3	65.3	65.3	86	61.0	0	2	68	0.00	30.019 
13:10	65.5	65.5	65.5	86	61.2	0	1	68	0.00	30.019 
13:15	65.5	65.5	65.5	86	61.2	0	1	68	0.00	30.017 
13:20	65.6	65.6	65.6	85	61.0	0	1	68	0.00	30.017 
13:25	65.6	65.6	65.6	85	61.0	0	2	270	0.00	30.017 
13:30	65.6	65.6	65.6	85	61.0	0	2	270	0.00	30.015 
13:35	65.8	65.8	65.8	85	61.2	0	2	225	0.00	30.015 
13:40	65.8	65.8	65.8	85	61.2	0	2	248	0.00	30.015 
13:45	66.1	66.1	66.1	84	61.1	0	2	248	0.00	30.014 
13:50	66.3	66.3	66.3	84	61.3	0	3	248	0.00	30.014 
13:55	66.4	66.4	66.4	83	61.1	0	2	248	0.00	30.014 
14:00	66.6	66.6	66.6	83	61.3	0	1	248	0.00	30.013 
14:05	66.6	66.6	66.6	82	60.9	0	2	248	0.00	30.013 
14:10	66.8	66.8	66.8	82	61.1	0	2	248	0.00	30.013 
14:15	66.9	66.9	66.9	82	61.2	0	1	248	0.00	30.007 
14:20	67.3	67.3	67.3	81	61.3	0	4	248	0.00	30.007 
14:25	67.6	67.6	67.6	81	61.6	0	1	292	0.00	30.007 
14:30	67.8	67.8	67.8	81	61.7	0	2	292	0.00	30.001 
14:35	67.9	67.9	67.9	80	61.5	0	1	292	0.00	30.001 
14:40	68.1	68.1	68.1	79	61.3	0	2	292	0.00	30.001 
14:45	68.1	68.1	68.1	79	61.3	0	2	292	0.00	29.997 
14:50	68.3	68.3	68.3	79	61.5	0	1	292	0.00	29.997 
14:55	68.3	68.3	68.3	79	61.5	0	2	292	0.00	29.997 
15:00	68.4	68.4	68.4	79	61.6	0	1	270	0.00	29.994 
15:05	68.6	68.6	68.6	79	61.8	0	1	270	0.00	29.994 
15:10	68.9	68.9	68.9	78	61.7	1	6	90	0.00	29.994 
15:15	69.4	69.4	69.4	78	62.2	0	2	68	0.00	29.988 
15:20	69.9	69.9	69.9	76	62.0	0	3	248	0.00	29.988 
15:25	70.1	70.1	70.1	74	61.4	0	2	248	0.00	29.988 
15:30	70.4	70.4	70.4	73	61.3	0	3	248	0.00	29.993 
15:35	70.8	70.8	70.8	73	61.7	1	3	135	0.00	29.993 
15:40	71.5	71.5	71.5	71	61.6	1	3	270	0.00	29.993 
15:45	71.6	71.6	71.6	70	61.3	1	3	270	0.00	29.982 
15:50	71.6	71.6	71.6	70	61.3	1	4	315	0.00	29.982 
15:55	71.8	71.8	71.8	71	61.9	0	2	315	0.00	29.982 
16:00	72.1	72.1	72.1	70	61.8	0	2	315	0.00	29.978 
16:05	72.8	72.8	72.8	68	61.6	1	3	292	0.00	29.978 
16:10	72.8	72.8	72.8	68	61.6	1	3	292	0.00	29.978 
16:15	72.8	72.8	72.8	68	61.6	1	4	292	0.00	29.971 
16:20	72.8	72.8	72.8	66	60.8	0	2	248	0.00	29.971 
16:25	72.7	72.7	72.7	67	61.1	0	2	248	0.00	29.971 
16:30	72.7	72.7	72.7	68	61.5	0	2	180	0.00	29.965 
16:35	72.7	72.7	72.7	67	61.1	1	4	270	0.00	29.965 
16:40	72.8	72.8	72.8	65	60.3	1	4	270	0.00	29.965 
16:45	72.8	72.8	72.8	65	60.3	1	3	292	0.00	29.963 
16:50	72.8	72.8	72.8	66	60.8	1	3	225	0.00	29.963 
16:55	73.0	73.0	73.0	67	61.4	0	3	225	0.00	29.963 
17:00	73.0	73.0	73.0	65	60.5	1	3	225	0.00	29.961 
17:05	73.0	73.0	73.0	64	60.1	2	5	270	0.00	29.961 
17:10	73.0	73.0	73.0	63	59.6	1	7	270	0.00	29.961 
17:15	73.3	73.3	73.3	63	59.9	2	5	270	0.00	29.962 
17:20	73.3	73.3	73.3	64	60.4	1	3	270	0.00	29.962 
17:25	73.2	73.2	73.2	62	59.4	1	3	248	0.00	29.962 
17:30	73.2	73.2	73.2	62	59.4	1	4	292	0.00	29.962 
17:35	73.2	73.2	73.2	62	59.4	1	2	292	0.00	29.962 
17:40	73.2	73.2	73.2	62	59.4	1	4	270	0.00	29.962 
17:45	73.2	73.2	73.2	62	59.4	1	2	270	0.00	29.962 
17:50	73.2	73.2	73.2	62	59.4	1	4	270	0.00	29.962 
17:55	73.2	73.2	73.2	62	59.4	1	3	270	0.00	29.962 
18:00	73.0	73.0	73.0	63	59.6	1	3	315	0.00	29.962 
18:05	72.8	72.8	72.8	63	59.5	0	2	315	0.00	29.962 
18:10	72.8	72.8	72.8	64	59.9	0	2	315	0.00	29.962 
18:15	72.8	72.8	72.8	64	59.9	1	3	315	0.00	29.959 
18:20	72.7	72.7	72.7	64	59.8	1	3	315	0.00	29.959 
18:25	72.5	72.5	72.5	64	59.6	1	3	315	0.00	29.959 
18:30	72.3	72.3	72.3	64	59.4	1	3	315	0.00	29.958 
18:35	72.1	72.1	72.1	64	59.2	1	4	292	0.00	29.958 
18:40	72.0	72.0	72.0	65	59.6	0	2	315	0.00	29.958 
18:45	71.6	71.6	71.6	66	59.6	0	3	315	0.00	29.958 
18:50	71.5	71.5	71.5	66	59.5	0	2	315	0.00	29.958 
18:55	71.1	71.1	71.1	67	59.6	0	1	315	0.00	29.958 
19:00	70.9	70.9	70.9	68	59.8	0	1	315	0.00	29.956 
19:05	70.8	70.8	70.8	68	59.7	0	1	292	0.00	29.956 
19:10	70.4	70.4	70.4	69	59.7	0	2	315	0.00	29.956 
19:15	70.3	70.3	70.3	69	59.6	0	1	315	0.00	29.952 
19:20	69.9	69.9	69.9	70	59.7	0	1	315	0.00	29.952 
19:25	69.6	69.6	69.6	71	59.8	0	0	---	0.00	29.952 
19:30	69.3	69.3	69.3	72	59.9	0	0	---	0.00	29.961 
19:35	68.9	68.9	68.9	73	59.9	0	0	---	0.00	29.961 
19:40	68.6	68.6	68.6	73	59.6	0	0	---	0.00	29.961 
19:45	68.3	68.3	68.3	74	59.7	0	0	---	0.00	29.962 
19:50	67.9	67.9	67.9	75	59.7	0	0	---	0.00	29.962 
19:55	67.6	67.6	67.6	76	59.8	0	0	---	0.00	29.962 
20:00	67.4	67.4	67.4	77	59.9	0	0	---	0.00	29.966 
20:05	67.1	67.1	67.1	78	60.0	0	0	---	0.00	29.966 
20:10	66.8	66.8	66.8	78	59.7	0	0	---	0.00	29.966 
20:15	66.4	66.4	66.4	79	59.7	0	0	---	0.00	29.966 
20:20	66.1	66.1	66.1	79	59.4	0	0	---	0.00	29.966 
20:25	65.8	65.8	65.8	80	59.5	0	0	---	0.00	29.966 
20:30	65.6	65.6	65.6	81	59.6	0	0	---	0.00	29.966 
20:35	65.5	65.5	65.5	81	59.5	0	0	---	0.00	29.966 
20:40	65.3	65.3	65.3	82	59.7	0	0	---	0.00	29.966 
20:45	65.2	65.2	65.2	82	59.6	0	0	---	0.00	29.965 
20:50	65.0	65.0	65.0	83	59.7	0	0	---	0.00	29.965 
20:55	64.7	64.7	64.7	83	59.4	0	0	---	0.00	29.965 
21:00	64.5	64.5	64.5	84	59.6	0	0	---	0.00	29.969 
21:05	64.3	64.3	64.3	84	59.4	0	0	---	0.00	29.969 
21:10	64.2	64.2	64.2	85	59.6	0	0	---	0.00	29.969 
21:15	64.0	64.0	64.0	85	59.4	0	0	---	0.00	29.971 
21:20	64.0	64.0	64.0	85	59.4	0	0	---	0.00	29.971 
21:25	63.9	63.9	63.9	85	59.3	0	0	---	0.00	29.971 
21:30	63.9	63.9	63.9	85	59.3	0	0	---	0.00	29.970 
21:35	63.7	63.7	63.7	86	59.4	0	0	---	0.00	29.970 
21:40	63.7	63.7	63.7	86	59.4	0	0	---	0.00	29.970 
21:45	63.7	63.7	63.7	86	59.4	0	0	---	0.00	29.971 
21:50	63.7	63.7	63.7	86	59.4	0	0	---	0.00	29.971 
21:55	63.9	63.9	63.9	86	59.6	0	0	---	0.00	29.971 
22:00	64.0	64.0	64.0	86	59.7	0	1	315	0.00	29.974 
22:05	64.2	64.2	64.2	85	59.6	0	0	---	0.00	29.974 
22:10	64.2	64.2	64.2	85	59.6	0	0	---	0.00	29.974 
22:15	64.0	64.0	64.0	85	59.4	0	0	---	0.00	29.974 
22:20	64.0	64.0	64.0	85	59.4	0	0	---	0.00	29.974 
22:25	64.0	64.0	64.0	85	59.4	0	0	---	0.00	29.974 
22:30	64.0	64.0	64.0	85	59.4	0	1	292	0.00	29.977 
22:35	64.0	64.0	64.0	85	59.4	0	1	292	0.00	29.977 
22:40	64.0	64.0	64.0	85	59.4	0	0	---	0.00	29.977 
22:45	63.9	63.9	63.9	85	59.3	0	0	---	0.00	29.977 
22:50	63.9	63.9	63.9	85	59.3	0	0	---	0.00	29.977 
22:55	63.9	63.9	63.9	85	59.3	0	0	---	0.00	29.977 
23:00	63.9	63.9	63.9	85	59.3	0	0	---	0.00	29.980 
23:05	63.9	63.9	63.9	85	59.3	0	1	292	0.00	29.980 
23:10	63.9	63.9	63.9	85	59.3	0	0	---	0.00	29.980 
23:15	63.9	63.9	63.9	85	59.3	0	1	315	0.00	29.979 
23:20	63.9	63.9	63.9	85	59.3	0	0	---	0.00	29.979 
23:25	63.9	63.9	63.9	85	59.3	0	1	292	0.00	29.979 
23:30	63.9	63.9	63.9	85	59.3	0	1	315	0.00	29.980 
23:35	64.0	64.0	64.0	85	59.4	0	1	292	0.00	29.980 
23:40	64.0	64.0	64.0	85	59.4	0	1	315	0.00	29.980 
23:45	64.2	64.2	64.2	85	59.6	0	1	315	0.00	29.978 
23:50	64.2	64.2	64.2	85	59.6	0	1	292	0.00	29.978 
23:55	64.3	64.3	64.3	85	59.7	0	0	---	0.00	29.978 

CoCoRaHS
IN-AL-39
A2 Web Hosting
Creative Commons License
GoDaddy
search engine by freefind advanced

loaded 2018-11-17 06:48:30 • last modified 2010-11-18 10:43:29
Privacy PolicyDisclaimer
• wx.awcolley.com is powered by PmWiki v.2002016 •
• all content (unless otherwise noted) © 2018 A W Colley